Yellowstone Regional Airport Cody US
ICAO: KCOD
IATA: COD
Category: Medium
Scheduled Services: No

Elevation: 5102 ft
TransAlt. 18000 ft.

Airport Communications:
AWOS 3:135.075
SALT LAKE CITY CNTR:133.25
CASPER RDO:122.3
CTAF/UNICOM:122.8

KCOD Zoom In..

If you have problems with the map follow the link
https://www.worldairports.se/pages/airport.php?
ICAO=KCOD

Runways:

(A) RW 04 length 8268 ft width 100 ft
---- / hdg 38

(B) RW 22 length 8268 ft width 100 ft
---- / hdg 218

Location; KCOD
Day. 14 / Time. 03.56 Zulu
* Altimeter: 29.85
* Temperature: 00° c. 32°f.
* Wind from: 260° Speed 07 kn.
Dewpoint: -10° c.
Visibility: 10 Statute Miles.
Clouds: Clear (automated report).

KCOD 140356Z AUTO 26007KT 10SM CLR 00/M10 A2985 RMK AO2 SLP129 T00001100 FZRANO


Wind From 260°
Speed 07 kn.

 
 
jpsmedia worldairports.se 2019   terms of use